createdAt,value
2023-01-26T00:00:07.053Z,23.73
2023-01-26T00:01:12.755Z,22.20
2023-01-26T00:02:14.816Z,22.13
2023-01-26T00:03:19.818Z,21.13
2023-01-26T00:04:22.085Z,22.40
2023-01-26T00:05:26.857Z,20.15
2023-01-26T00:06:28.882Z,21.15
2023-01-26T00:07:33.575Z,20.45
2023-01-26T00:08:37.838Z,19.95
2023-01-26T00:09:42.642Z,20.55
2023-01-26T00:10:50.607Z,19.80
2023-01-26T00:11:55.251Z,18.45
2023-01-26T00:12:57.551Z,20.05
2023-01-26T00:14:03.902Z,19.83
2023-01-26T00:15:07.394Z,20.02
2023-01-26T00:16:14.622Z,19.50
2023-01-26T00:17:26.153Z,19.80
2023-01-26T00:19:32.839Z,18.33
2023-01-26T00:20:37.374Z,17.48
2023-01-26T00:21:39.469Z,19.30
2023-01-26T00:22:44.287Z,18.08
2023-01-26T00:23:47.635Z,18.33
2023-01-26T00:24:52.286Z,18.05
2023-01-26T00:25:57.220Z,16.80
2023-01-26T00:27:01.883Z,16.60
2023-01-26T00:28:03.954Z,16.83
2023-01-26T00:29:08.540Z,17.27
2023-01-26T00:30:11.278Z,16.40
2023-01-26T00:31:18.362Z,17.27
2023-01-26T00:32:20.684Z,17.08
2023-01-26T00:33:25.438Z,16.25
2023-01-26T00:34:27.704Z,15.40
2023-01-26T00:35:32.462Z,14.98
2023-01-26T00:36:36.370Z,16.20
2023-01-26T00:37:41.161Z,15.43
2023-01-26T00:38:43.224Z,15.65
2023-01-26T00:39:48.245Z,15.82
2023-01-26T00:40:50.683Z,17.05
2023-01-26T00:42:10.095Z,16.20
2023-01-26T00:43:12.180Z,16.05
2023-01-26T00:44:16.771Z,16.15
2023-01-26T00:45:18.842Z,15.98
2023-01-26T00:46:23.541Z,17.20
2023-01-26T00:47:28.143Z,16.45
2023-01-26T00:48:30.108Z,16.27
2023-01-26T00:49:34.742Z,19.13
2023-01-26T00:50:36.960Z,17.88
2023-01-26T00:51:41.762Z,18.80
2023-01-26T00:52:43.801Z,17.13
2023-01-26T00:53:48.490Z,15.70
2023-01-26T00:54:50.526Z,16.98
2023-01-26T00:55:58.170Z,14.52
2023-01-26T00:57:02.938Z,16.50
2023-01-26T00:58:09.547Z,15.90
2023-01-26T00:59:12.283Z,14.68
2023-01-26T01:00:17.801Z,15.27
2023-01-26T01:01:19.857Z,15.88
2023-01-26T01:02:24.700Z,13.57
2023-01-26T01:03:26.811Z,15.55
2023-01-26T01:04:32.747Z,14.77
2023-01-26T01:05:35.300Z,14.50
2023-01-26T01:06:40.092Z,13.90
2023-01-26T01:07:42.165Z,15.07
2023-01-26T01:08:47.043Z,14.93
2023-01-26T01:09:49.009Z,14.90
2023-01-26T01:10:53.542Z,15.57
2023-01-26T01:11:55.657Z,14.68
2023-01-26T01:13:02.948Z,16.52
2023-01-26T01:14:05.095Z,15.20
2023-01-26T01:15:11.443Z,15.80
2023-01-26T01:16:15.705Z,15.18
2023-01-26T01:17:20.425Z,14.00
2023-01-26T01:18:22.415Z,15.45
2023-01-26T01:19:27.675Z,14.35
2023-01-26T01:20:30.039Z,13.90
2023-01-26T01:21:36.541Z,14.77
2023-01-26T01:22:38.718Z,14.07
2023-01-26T01:23:44.054Z,15.32
2023-01-26T01:24:46.158Z,14.32
2023-01-26T01:25:59.017Z,13.93
2023-01-26T01:27:01.022Z,12.82
2023-01-26T01:28:08.531Z,13.63
2023-01-26T01:29:13.292Z,13.25
2023-01-26T01:30:18.179Z,13.23
2023-01-26T01:31:20.528Z,13.68
2023-01-26T01:32:25.450Z,13.82
2023-01-26T01:33:27.664Z,12.95
2023-01-26T01:34:32.950Z,12.48
2023-01-26T01:35:36.042Z,12.90
2023-01-26T01:36:40.838Z,11.60
2023-01-26T01:37:42.827Z,12.77
2023-01-26T01:38:50.408Z,12.45
2023-01-26T01:39:52.369Z,11.80
2023-01-26T01:40:58.063Z,11.80
2023-01-26T01:42:02.820Z,11.93
2023-01-26T01:43:11.943Z,12.77
2023-01-26T01:44:21.557Z,13.68
2023-01-26T01:45:39.337Z,12.55
2023-01-26T01:46:50.207Z,12.68
2023-01-26T01:47:53.447Z,12.15
2023-01-26T01:49:05.112Z,12.38
2023-01-26T01:51:24.351Z,10.93
2023-01-26T01:52:30.023Z,11.40
2023-01-26T01:53:38.924Z,12.35
2023-01-26T01:54:44.959Z,12.35
2023-01-26T01:58:15.192Z,12.75
2023-01-26T01:59:21.520Z,14.30
2023-01-26T02:00:27.587Z,13.38
2023-01-26T02:01:30.161Z,13.20
2023-01-26T02:02:35.098Z,13.50
2023-01-26T02:03:38.118Z,12.75
2023-01-26T02:04:43.311Z,12.50
2023-01-26T02:05:53.449Z,12.70
2023-01-26T02:07:02.434Z,12.98
2023-01-26T02:08:05.711Z,13.18
2023-01-26T02:09:31.883Z,11.68
2023-01-26T02:10:33.964Z,12.65
2023-01-26T02:11:44.994Z,13.25
2023-01-26T02:12:49.069Z,13.05
2023-01-26T02:13:57.638Z,13.45
2023-01-26T02:15:01.559Z,12.68
2023-01-26T02:16:06.893Z,13.77
2023-01-26T02:17:09.726Z,13.30
2023-01-26T02:18:16.551Z,13.45
2023-01-26T02:19:27.645Z,14.18
2023-01-26T02:20:40.582Z,11.25
2023-01-26T02:21:45.357Z,10.77
2023-01-26T02:22:57.409Z,11.07
2023-01-26T02:24:10.680Z,13.15
2023-01-26T02:25:27.282Z,12.23
2023-01-26T02:26:34.266Z,10.93
2023-01-26T02:27:40.235Z,11.27
2023-01-26T02:28:44.384Z,11.52
2023-01-26T02:29:49.400Z,12.38
2023-01-26T02:30:54.203Z,11.48
2023-01-26T02:31:59.642Z,11.45
2023-01-26T02:33:01.895Z,10.60
2023-01-26T02:34:06.755Z,11.10
2023-01-26T02:35:09.723Z,11.90
2023-01-26T02:36:21.399Z,10.95
2023-01-26T02:37:23.779Z,11.07
2023-01-26T02:38:33.274Z,10.98
2023-01-26T02:39:47.556Z,12.02
2023-01-26T02:40:54.381Z,12.02
2023-01-26T02:42:14.311Z,12.55
2023-01-26T02:43:19.253Z,10.73
2023-01-26T02:44:27.039Z,10.75
2023-01-26T02:45:34.178Z,11.93
2023-01-26T02:46:36.388Z,13.63
2023-01-26T02:47:41.368Z,12.95
2023-01-26T02:48:58.390Z,12.30
2023-01-26T02:50:00.764Z,13.25
2023-01-26T02:51:02.971Z,14.75
2023-01-26T02:52:07.903Z,13.60
2023-01-26T02:53:12.624Z,15.43
2023-01-26T02:54:34.677Z,16.67
2023-01-26T02:55:36.689Z,13.98
2023-01-26T02:56:43.022Z,16.27
2023-01-26T02:57:47.807Z,16.25
2023-01-26T02:58:53.129Z,16.02
2023-01-26T02:59:55.358Z,17.38
2023-01-26T03:01:00.169Z,15.68
2023-01-26T03:02:02.590Z,16.35
2023-01-26T03:03:15.194Z,17.17
2023-01-26T03:04:17.241Z,15.45
2023-01-26T03:05:22.192Z,14.45
2023-01-26T03:06:24.313Z,15.55
2023-01-26T03:07:29.364Z,15.90
2023-01-26T03:08:31.464Z,16.52
2023-01-26T03:09:36.157Z,17.38
2023-01-26T03:10:38.405Z,15.68
2023-01-26T03:11:44.871Z,15.88
2023-01-26T03:12:49.577Z,16.60
2023-01-26T03:13:54.190Z,17.45
2023-01-26T03:15:11.408Z,17.80
2023-01-26T03:16:18.486Z,18.92
2023-01-26T03:17:20.505Z,18.88
2023-01-26T03:18:38.956Z,16.50
2023-01-26T03:19:55.960Z,17.00
2023-01-26T03:21:29.779Z,17.30
2023-01-26T03:22:46.829Z,18.65
2023-01-26T03:24:04.258Z,17.08
2023-01-26T03:25:21.858Z,17.48
2023-01-26T03:26:39.386Z,19.65
2023-01-26T03:27:46.542Z,20.50
2023-01-26T03:28:51.388Z,19.67
2023-01-26T03:29:56.443Z,20.20
2023-01-26T03:31:01.462Z,19.52
2023-01-26T03:32:03.719Z,19.50
2023-01-26T03:33:08.396Z,18.02
2023-01-26T03:34:10.660Z,19.48
2023-01-26T03:35:15.774Z,19.98
2023-01-26T03:36:17.864Z,18.98
2023-01-26T03:37:23.039Z,18.73
2023-01-26T03:38:25.112Z,17.42
2023-01-26T03:39:42.403Z,18.58
2023-01-26T03:40:59.424Z,18.05
2023-01-26T03:42:17.080Z,18.85
2023-01-26T03:43:34.195Z,17.05
2023-01-26T03:44:53.991Z,17.05
2023-01-26T03:46:11.123Z,16.50
2023-01-26T03:47:28.279Z,17.67
2023-01-26T03:48:45.482Z,16.40
2023-01-26T03:50:02.521Z,14.70
2023-01-26T03:51:20.326Z,15.55
2023-01-26T03:52:37.488Z,16.17
2023-01-26T03:53:54.988Z,15.32
2023-01-26T03:55:12.107Z,18.35
2023-01-26T03:56:23.053Z,16.88
2023-01-26T03:57:25.034Z,18.45
2023-01-26T03:58:30.447Z,16.35
2023-01-26T03:59:38.454Z,17.88
2023-01-26T04:00:45.774Z,18.85
2023-01-26T04:02:02.882Z,16.15
2023-01-26T04:03:19.972Z,16.42
2023-01-26T04:04:37.191Z,16.63
2023-01-26T04:05:54.267Z,15.95
2023-01-26T04:07:11.549Z,16.15
2023-01-26T04:08:27.247Z,16.23
2023-01-26T04:09:29.674Z,17.80
2023-01-26T04:10:34.384Z,16.90
2023-01-26T04:11:36.459Z,16.88
2023-01-26T04:12:41.636Z,18.90
2023-01-26T04:13:58.761Z,19.05
2023-01-26T04:15:15.850Z,18.23
2023-01-26T04:16:35.696Z,19.45
2023-01-26T04:17:52.845Z,16.60
2023-01-26T04:19:10.133Z,17.13
2023-01-26T04:20:27.656Z,16.40
2023-01-26T04:21:34.010Z,16.63
2023-01-26T04:22:40.367Z,16.00
2023-01-26T04:23:45.112Z,15.10
2023-01-26T04:24:47.110Z,15.43
2023-01-26T04:25:52.289Z,17.20
2023-01-26T04:26:54.286Z,15.70
2023-01-26T04:27:58.874Z,15.52
2023-01-26T04:29:02.057Z,17.30
2023-01-26T04:30:07.731Z,17.00
2023-01-26T04:31:09.752Z,23.52
2023-01-26T04:32:17.303Z,25.73
2023-01-26T04:33:19.366Z,19.83
2023-01-26T04:34:24.030Z,20.17
2023-01-26T04:35:26.181Z,17.20
2023-01-26T04:36:31.633Z,17.60
2023-01-26T04:37:36.888Z,18.27
2023-01-26T04:38:38.884Z,16.40
2023-01-26T04:39:43.712Z,15.50
2023-01-26T04:40:45.705Z,14.40
2023-01-26T04:41:50.372Z,13.85
2023-01-26T04:42:52.359Z,13.90
2023-01-26T04:43:56.929Z,13.00
2023-01-26T04:44:58.880Z,13.73
2023-01-26T04:46:05.732Z,13.25
2023-01-26T04:47:07.897Z,15.13
2023-01-26T04:48:14.973Z,14.48
2023-01-26T04:49:16.946Z,16.42
2023-01-26T04:50:21.703Z,15.18
2023-01-26T04:51:23.722Z,15.90
2023-01-26T04:52:28.427Z,17.35
2023-01-26T04:53:31.895Z,17.83
2023-01-26T04:54:36.652Z,17.60
2023-01-26T04:55:38.778Z,17.80
2023-01-26T04:56:43.519Z,18.60
2023-01-26T04:57:45.560Z,17.65
2023-01-26T04:58:50.194Z,17.10
2023-01-26T04:59:52.185Z,16.98
2023-01-26T05:00:57.817Z,16.40
2023-01-26T05:02:00.175Z,16.75
2023-01-26T05:03:04.976Z,13.43
2023-01-26T05:04:12.927Z,14.70
2023-01-26T05:05:17.726Z,12.20
2023-01-26T05:06:19.844Z,11.85
2023-01-26T05:07:24.755Z,12.15
2023-01-26T05:08:26.837Z,10.70
2023-01-26T05:09:31.592Z,10.00
2023-01-26T05:10:33.813Z,11.75
2023-01-26T05:11:38.620Z,12.88
2023-01-26T05:12:42.878Z,13.27
2023-01-26T05:13:47.616Z,13.75
2023-01-26T05:14:49.583Z,15.00
2023-01-26T05:15:54.348Z,14.75
2023-01-26T05:16:56.472Z,14.55
2023-01-26T05:18:01.573Z,17.40
2023-01-26T05:19:03.743Z,15.45
2023-01-26T05:20:13.361Z,14.82
2023-01-26T05:21:15.552Z,15.88
2023-01-26T05:22:20.250Z,17.20
2023-01-26T05:23:22.619Z,15.98
2023-01-26T05:24:27.366Z,16.02
2023-01-26T05:25:29.511Z,17.25
2023-01-26T05:26:34.236Z,16.42
2023-01-26T05:27:36.835Z,15.75
2023-01-26T05:28:41.531Z,14.80
2023-01-26T05:29:43.551Z,15.85
2023-01-26T05:30:48.284Z,15.70
2023-01-26T05:31:50.508Z,17.13
2023-01-26T05:32:55.134Z,15.93
2023-01-26T05:33:57.118Z,16.10
2023-01-26T05:35:02.084Z,15.57
2023-01-26T05:36:08.636Z,16.40
2023-01-26T05:37:14.957Z,17.25
2023-01-26T05:38:20.689Z,15.85
2023-01-26T05:39:22.687Z,16.00
2023-01-26T05:40:27.710Z,15.88
2023-01-26T05:41:29.906Z,15.55
2023-01-26T05:42:34.595Z,15.57
2023-01-26T05:43:36.718Z,15.27
2023-01-26T05:44:41.697Z,15.38
2023-01-26T05:45:44.232Z,14.13
2023-01-26T05:46:48.858Z,15.52
2023-01-26T05:47:51.043Z,14.88
2023-01-26T05:48:56.132Z,14.98
2023-01-26T05:49:58.152Z,15.73
2023-01-26T05:51:04.050Z,16.73
2023-01-26T05:52:12.406Z,15.73
2023-01-26T05:53:17.031Z,15.25
2023-01-26T05:54:19.155Z,15.95
2023-01-26T05:55:24.103Z,15.10
2023-01-26T05:56:26.083Z,14.60
2023-01-26T05:57:30.769Z,14.77
2023-01-26T05:58:32.926Z,13.73
2023-01-26T05:59:37.940Z,14.40
2023-01-26T06:00:39.979Z,14.70
2023-01-26T06:01:45.293Z,14.80
2023-01-26T06:02:48.646Z,13.45
2023-01-26T06:03:53.945Z,13.55
2023-01-26T06:04:55.970Z,14.02
2023-01-26T06:06:00.616Z,14.02
2023-01-26T06:07:02.925Z,13.85
2023-01-26T06:08:10.577Z,13.98
2023-01-26T06:09:12.812Z,13.35
2023-01-26T06:10:17.962Z,13.85
2023-01-26T06:11:20.169Z,12.52
2023-01-26T06:12:25.672Z,14.55
2023-01-26T06:13:27.812Z,12.48
2023-01-26T06:14:33.231Z,13.43
2023-01-26T06:15:38.429Z,12.65
2023-01-26T06:16:41.028Z,13.38
2023-01-26T06:17:45.828Z,12.20
2023-01-26T06:18:48.636Z,12.55
2023-01-26T06:19:54.505Z,12.07
2023-01-26T06:21:01.973Z,13.70
2023-01-26T06:22:04.497Z,14.15
2023-01-26T06:23:12.704Z,11.30
2023-01-26T06:24:14.896Z,12.70
2023-01-26T06:25:20.897Z,12.32
2023-01-26T06:26:24.648Z,12.05
2023-01-26T06:27:30.045Z,16.42
2023-01-26T06:28:32.200Z,13.73
2023-01-26T06:29:37.047Z,13.70
2023-01-26T06:30:42.099Z,11.40
2023-01-26T06:31:44.440Z,13.10
2023-01-26T06:32:50.854Z,15.35
2023-01-26T06:33:55.466Z,15.88
2023-01-26T06:34:57.540Z,10.55
2023-01-26T06:36:04.924Z,10.45
2023-01-26T06:37:07.968Z,16.15
2023-01-26T06:38:15.450Z,11.82
2023-01-26T06:39:17.795Z,10.70
2023-01-26T06:40:23.003Z,11.25
2023-01-26T06:41:25.329Z,14.93
2023-01-26T06:42:30.237Z,10.48
2023-01-26T06:43:32.730Z,10.05
2023-01-26T06:44:37.426Z,11.00
2023-01-26T06:45:39.414Z,12.23
2023-01-26T06:46:44.037Z,12.20
2023-01-26T06:47:46.499Z,12.13
2023-01-26T06:48:51.107Z,11.00
2023-01-26T06:49:53.262Z,11.25
2023-01-26T06:51:02.137Z,12.77
2023-01-26T06:52:05.484Z,13.85
2023-01-26T06:53:28.993Z,13.60
2023-01-26T06:54:33.538Z,12.52
2023-01-26T06:55:38.563Z,13.15
2023-01-26T06:56:43.391Z,12.80
2023-01-26T06:57:45.345Z,12.63
2023-01-26T06:58:49.901Z,10.77
2023-01-26T06:59:54.564Z,10.55
2023-01-26T07:00:57.731Z,9.90
2023-01-26T07:02:02.465Z,10.75
2023-01-26T07:03:04.532Z,10.15
2023-01-26T07:04:09.459Z,10.82
2023-01-26T07:05:14.108Z,12.25
2023-01-26T07:06:16.147Z,9.80
2023-01-26T07:07:20.981Z,9.82
2023-01-26T07:08:25.675Z,9.40
2023-01-26T07:09:30.829Z,9.82
2023-01-26T07:10:35.817Z,8.68
2023-01-26T07:11:41.373Z,9.45
2023-01-26T07:12:45.924Z,8.43
2023-01-26T07:13:50.714Z,8.65
2023-01-26T07:14:55.752Z,7.90
2023-01-26T07:16:01.494Z,8.75
2023-01-26T07:17:06.695Z,9.05
2023-01-26T07:18:09.146Z,8.70
2023-01-26T07:19:13.899Z,8.15
2023-01-26T07:20:16.567Z,8.23
2023-01-26T07:21:23.158Z,9.65
2023-01-26T07:22:27.829Z,9.40
2023-01-26T07:23:34.657Z,8.85
2023-01-26T07:24:39.650Z,9.00
2023-01-26T07:25:43.733Z,9.27
2023-01-26T07:26:48.551Z,9.52
2023-01-26T07:27:58.615Z,9.80
2023-01-26T07:29:03.436Z,10.30
2023-01-26T07:30:07.485Z,10.05
2023-01-26T07:31:14.188Z,9.18
2023-01-26T07:32:16.325Z,9.00
2023-01-26T07:33:21.582Z,9.95
2023-01-26T07:34:26.543Z,10.13
2023-01-26T07:35:29.896Z,10.25
2023-01-26T07:36:34.962Z,10.43
2023-01-26T07:37:37.009Z,9.65
2023-01-26T07:38:45.374Z,10.23
2023-01-26T07:39:49.246Z,9.18
2023-01-26T07:40:54.472Z,9.48
2023-01-26T07:41:56.630Z,9.32
2023-01-26T07:43:02.003Z,9.52
2023-01-26T07:44:08.568Z,9.75
2023-01-26T07:45:11.419Z,9.60
2023-01-26T07:46:16.187Z,9.27
2023-01-26T07:47:20.140Z,9.43
2023-01-26T07:48:29.983Z,9.75
2023-01-26T07:49:34.948Z,9.95
2023-01-26T07:50:40.013Z,11.45
2023-01-26T07:51:44.911Z,10.90
2023-01-26T07:52:47.094Z,10.75
2023-01-26T07:53:54.533Z,10.75
2023-01-26T07:54:56.739Z,11.55
2023-01-26T07:56:09.691Z,11.55
2023-01-26T07:57:15.212Z,10.60
2023-01-26T07:58:18.781Z,11.90
2023-01-26T07:59:24.112Z,11.88
2023-01-26T08:00:26.299Z,12.50
2023-01-26T08:01:31.148Z,11.43
2023-01-26T08:02:33.509Z,12.25
2023-01-26T08:03:38.887Z,10.60
2023-01-26T08:04:43.940Z,11.85
2023-01-26T08:05:47.408Z,10.65
2023-01-26T08:06:54.054Z,11.00
2023-01-26T08:07:58.612Z,9.88
2023-01-26T08:09:06.495Z,10.70
2023-01-26T08:10:11.108Z,11.02
2023-01-26T08:11:16.068Z,9.10
2023-01-26T08:12:18.404Z,10.13
2023-01-26T08:13:34.404Z,10.52
2023-01-26T08:14:46.834Z,9.98
2023-01-26T08:15:49.307Z,8.70
2023-01-26T08:16:54.321Z,9.23
2023-01-26T08:17:59.319Z,10.23
2023-01-26T08:19:04.180Z,7.85
2023-01-26T08:20:07.394Z,9.00
2023-01-26T08:21:12.828Z,8.95
2023-01-26T08:22:14.850Z,8.95
2023-01-26T08:23:19.605Z,10.05
2023-01-26T08:24:28.208Z,9.35
2023-01-26T08:25:30.238Z,11.20
2023-01-26T08:26:36.026Z,10.27
2023-01-26T08:27:38.085Z,8.55
2023-01-26T08:28:43.630Z,9.07
2023-01-26T08:29:45.930Z,8.90
2023-01-26T08:30:50.612Z,8.93
2023-01-26T08:31:53.707Z,8.00
2023-01-26T08:32:58.613Z,8.85
2023-01-26T08:34:03.425Z,8.07
2023-01-26T08:35:07.705Z,9.02
2023-01-26T08:36:16.007Z,11.00
2023-01-26T08:37:21.560Z,10.80
2023-01-26T08:38:26.495Z,10.45
2023-01-26T08:39:33.826Z,9.32
2023-01-26T08:40:35.852Z,9.40
2023-01-26T08:41:40.488Z,9.57
2023-01-26T08:42:45.211Z,8.60
2023-01-26T08:43:50.352Z,8.77
2023-01-26T08:44:55.218Z,8.75
2023-01-26T08:46:00.480Z,7.97
2023-01-26T08:47:05.794Z,8.77
2023-01-26T08:48:10.429Z,7.90
2023-01-26T08:49:15.454Z,7.50
2023-01-26T08:50:17.949Z,8.05
2023-01-26T08:51:22.604Z,7.63
2023-01-26T08:52:27.400Z,7.95
2023-01-26T08:53:34.013Z,8.70
2023-01-26T08:54:41.528Z,9.55
2023-01-26T08:55:46.133Z,10.65
2023-01-26T08:56:48.102Z,7.95
2023-01-26T08:57:55.756Z,8.65
2023-01-26T08:58:57.854Z,8.50
2023-01-26T09:00:02.583Z,8.45
2023-01-26T09:01:08.558Z,8.30
2023-01-26T09:02:13.655Z,9.18
2023-01-26T09:03:18.371Z,9.43
2023-01-26T09:04:23.011Z,9.50
2023-01-26T09:05:25.111Z,9.10
2023-01-26T09:06:30.723Z,9.02
2023-01-26T09:07:32.910Z,10.48
2023-01-26T09:08:38.064Z,9.40
2023-01-26T09:09:46.089Z,8.82
2023-01-26T09:10:50.877Z,10.07
2023-01-26T09:11:55.589Z,14.50
2023-01-26T09:13:01.224Z,8.10
2023-01-26T09:14:06.006Z,7.75
2023-01-26T09:15:09.369Z,8.23
2023-01-26T09:16:19.769Z,7.78
2023-01-26T09:17:24.433Z,7.40
2023-01-26T09:18:29.412Z,7.68
2023-01-26T09:19:34.169Z,7.97
2023-01-26T09:20:40.432Z,7.43
2023-01-26T09:21:45.017Z,8.27
2023-01-26T09:22:50.774Z,13.90
2023-01-26T09:23:55.620Z,16.17
2023-01-26T09:25:03.043Z,10.45
2023-01-26T09:26:05.314Z,10.60
2023-01-26T09:27:10.061Z,7.40
2023-01-26T09:28:13.326Z,8.18
2023-01-26T09:29:18.853Z,9.55
2023-01-26T09:30:21.185Z,9.07
2023-01-26T09:31:25.981Z,8.25
2023-01-26T09:32:28.215Z,7.47
2023-01-26T09:33:32.916Z,7.40
2023-01-26T09:34:37.793Z,7.47
2023-01-26T09:35:39.803Z,8.93
2023-01-26T09:36:44.659Z,8.65
2023-01-26T09:37:49.319Z,7.30
2023-01-26T09:38:54.626Z,7.80
2023-01-26T09:40:02.112Z,7.28
2023-01-26T09:41:07.969Z,7.03
2023-01-26T09:42:28.465Z,7.43
2023-01-26T09:43:41.750Z,8.70
2023-01-26T09:44:52.554Z,9.13
2023-01-26T09:46:06.596Z,9.50
2023-01-26T09:47:20.890Z,15.85
2023-01-26T09:48:35.702Z,11.88
2023-01-26T09:49:49.823Z,8.52
2023-01-26T09:51:00.577Z,9.57
2023-01-26T09:52:09.357Z,8.32
2023-01-26T09:53:21.221Z,9.48
2023-01-26T09:54:34.109Z,8.93
2023-01-26T09:55:44.522Z,8.38
2023-01-26T09:56:49.699Z,8.45
2023-01-26T09:58:00.106Z,8.40
2023-01-26T09:59:14.517Z,7.85
2023-01-26T10:00:25.689Z,6.90
2023-01-26T10:01:39.173Z,8.18
2023-01-26T10:02:56.436Z,6.95
2023-01-26T10:04:07.188Z,7.35
2023-01-26T10:05:19.776Z,6.65
2023-01-26T10:06:29.156Z,8.30
2023-01-26T10:07:33.960Z,6.80
2023-01-26T10:08:36.185Z,7.35
2023-01-26T10:09:45.206Z,7.47
2023-01-26T10:10:57.539Z,7.47
2023-01-26T10:13:06.217Z,7.63
2023-01-26T10:14:17.487Z,7.00
2023-01-26T10:15:31.457Z,7.95
2023-01-26T10:16:37.164Z,6.63
2023-01-26T10:17:42.003Z,7.07
2023-01-26T10:18:56.041Z,6.18
2023-01-26T10:20:07.788Z,6.65
2023-01-26T10:21:15.775Z,7.28
2023-01-26T10:22:25.444Z,7.35
2023-01-26T10:23:32.110Z,6.60
2023-01-26T10:24:37.059Z,7.28
2023-01-26T10:25:41.435Z,7.28
2023-01-26T10:26:49.387Z,6.35
2023-01-26T10:27:54.165Z,6.65
2023-01-26T10:28:58.924Z,6.10
2023-01-26T10:30:03.534Z,6.93
2023-01-26T10:31:12.812Z,6.65
2023-01-26T10:32:20.031Z,6.50
2023-01-26T10:33:27.635Z,7.18
2023-01-26T10:34:33.121Z,6.57
2023-01-26T10:35:35.136Z,6.70
2023-01-26T10:36:39.795Z,8.10
2023-01-26T10:37:44.420Z,7.45
2023-01-26T10:38:50.261Z,8.30
2023-01-26T10:40:04.031Z,6.68
2023-01-26T10:41:11.164Z,6.65
2023-01-26T10:42:21.951Z,7.28
2023-01-26T10:43:28.567Z,7.00
2023-01-26T10:44:36.539Z,7.32
2023-01-26T10:45:48.380Z,6.63
2023-01-26T10:47:07.921Z,7.50
2023-01-26T10:48:21.290Z,7.43
2023-01-26T10:49:24.450Z,7.18
2023-01-26T10:50:29.465Z,14.50
2023-01-26T10:51:33.482Z,13.73
2023-01-26T10:52:38.533Z,15.25
2023-01-26T10:53:43.143Z,8.85
2023-01-26T10:54:48.323Z,7.38
2023-01-26T10:56:01.364Z,13.20
2023-01-26T10:57:08.501Z,9.07
2023-01-26T10:58:43.259Z,9.30
2023-01-26T10:59:54.594Z,7.60
2023-01-26T11:00:57.111Z,8.27
2023-01-26T11:02:05.015Z,13.20
2023-01-26T11:03:20.425Z,12.48
2023-01-26T11:04:23.460Z,8.70
2023-01-26T11:05:30.168Z,13.25
2023-01-26T11:06:33.039Z,10.27
2023-01-26T11:07:39.744Z,10.18
2023-01-26T11:08:44.765Z,9.77
2023-01-26T11:09:47.720Z,8.43
2023-01-26T11:10:57.452Z,8.60
2023-01-26T11:12:05.906Z,10.05
2023-01-26T11:13:13.979Z,12.77
2023-01-26T11:14:21.170Z,11.77
2023-01-26T11:15:29.386Z,9.10
2023-01-26T11:16:34.848Z,13.18
2023-01-26T11:17:43.562Z,9.40
2023-01-26T11:18:56.674Z,11.38
2023-01-26T11:20:10.825Z,11.00
2023-01-26T11:21:19.374Z,12.07
2023-01-26T11:22:28.891Z,13.48
2023-01-26T11:23:46.163Z,13.10
2023-01-26T11:25:01.100Z,13.85
2023-01-26T11:26:26.994Z,11.10
2023-01-26T11:27:43.248Z,12.38
2023-01-26T11:28:59.232Z,12.23
2023-01-26T11:30:26.534Z,13.43
2023-01-26T11:31:46.046Z,9.55
2023-01-26T11:32:56.871Z,11.63
2023-01-26T11:34:11.179Z,10.32
2023-01-26T11:35:22.867Z,12.10
2023-01-26T11:36:37.840Z,14.88
2023-01-26T11:37:53.882Z,14.80
2023-01-26T11:39:09.398Z,12.75
2023-01-26T11:40:33.121Z,12.65
2023-01-26T11:41:51.711Z,11.88
2023-01-26T11:43:29.438Z,22.75
2023-01-26T11:44:57.519Z,17.73
2023-01-26T11:46:18.655Z,24.52
2023-01-26T11:47:39.069Z,13.82
2023-01-26T11:48:54.565Z,12.55
2023-01-26T11:50:21.937Z,11.38
2023-01-26T11:51:36.860Z,11.88
2023-01-26T11:52:54.275Z,10.88
2023-01-26T11:54:22.403Z,11.40
2023-01-26T11:55:35.175Z,13.48
2023-01-26T11:56:51.841Z,13.55
2023-01-26T11:58:08.237Z,13.80
2023-01-26T11:59:17.631Z,13.48
2023-01-26T12:00:30.607Z,11.55
2023-01-26T12:01:42.130Z,11.85
2023-01-26T12:02:56.672Z,14.68
2023-01-26T12:04:01.409Z,12.70
2023-01-26T12:05:16.848Z,10.77
2023-01-26T12:06:28.819Z,8.82
2023-01-26T12:07:51.634Z,9.63
2023-01-26T12:09:02.813Z,8.25
2023-01-26T12:10:10.355Z,8.80
2023-01-26T12:11:25.647Z,10.32
2023-01-26T12:12:39.842Z,8.93
2023-01-26T12:13:50.130Z,9.05
2023-01-26T12:14:59.951Z,9.07
2023-01-26T12:16:09.183Z,7.38
2023-01-26T12:17:35.092Z,7.85
2023-01-26T12:19:01.839Z,8.05
2023-01-26T12:20:29.180Z,7.40
2023-01-26T12:21:36.099Z,6.78
2023-01-26T12:22:44.197Z,6.50
2023-01-26T12:23:56.461Z,7.03
2023-01-26T12:25:19.414Z,6.97
2023-01-26T12:26:39.935Z,7.53
2023-01-26T12:27:49.471Z,6.93
2023-01-26T12:29:09.282Z,7.35
2023-01-26T12:30:29.235Z,7.30
2023-01-26T12:31:39.859Z,7.22
2023-01-26T12:32:44.714Z,7.60
2023-01-26T12:33:56.606Z,9.18
2023-01-26T12:35:02.256Z,9.20
2023-01-26T12:36:23.512Z,9.68
2023-01-26T12:37:53.936Z,8.82
2023-01-26T12:39:15.646Z,10.00
2023-01-26T12:40:37.524Z,7.57
2023-01-26T12:43:08.909Z,8.35
2023-01-26T12:44:28.773Z,8.73
2023-01-26T12:45:37.435Z,7.60
2023-01-26T12:46:48.022Z,7.97
2023-01-26T12:47:57.747Z,7.13
2023-01-26T12:49:15.478Z,8.25
2023-01-26T12:50:35.621Z,17.25
2023-01-26T12:51:45.115Z,8.85
2023-01-26T12:52:55.422Z,9.80
2023-01-26T12:54:03.866Z,10.48
2023-01-26T12:55:18.308Z,8.73
2023-01-26T12:56:27.272Z,8.27
2023-01-26T12:57:37.119Z,9.30
2023-01-26T12:58:45.459Z,8.52
2023-01-26T12:59:51.516Z,8.07
2023-01-26T13:01:03.287Z,7.30
2023-01-26T13:02:23.121Z,7.75
2023-01-26T13:03:33.645Z,9.35
2023-01-26T13:04:41.479Z,7.93
2023-01-26T13:05:59.247Z,8.30
2023-01-26T13:07:27.567Z,9.13
2023-01-26T13:08:54.653Z,8.13
2023-01-26T13:10:28.103Z,17.10
2023-01-26T13:11:48.658Z,8.23
2023-01-26T13:12:55.356Z,10.98
2023-01-26T13:14:00.521Z,9.07
2023-01-26T13:15:10.230Z,11.10
2023-01-26T13:16:36.778Z,9.68
2023-01-26T13:17:52.717Z,10.88
2023-01-26T13:18:58.899Z,8.10
2023-01-26T13:20:25.051Z,8.80
2023-01-26T13:21:30.689Z,17.17
2023-01-26T13:22:41.499Z,18.63
2023-01-26T13:23:46.895Z,13.27
2023-01-26T13:24:53.502Z,17.88
2023-01-26T13:26:16.436Z,11.90
2023-01-26T13:27:35.834Z,9.60
2023-01-26T13:28:38.166Z,9.27
2023-01-26T13:29:56.503Z,9.60
2023-01-26T13:31:08.782Z,9.60
2023-01-26T13:32:59.727Z,8.45
2023-01-26T13:34:09.750Z,9.57
2023-01-26T13:35:19.857Z,8.65
2023-01-26T13:36:26.918Z,9.25
2023-01-26T13:37:38.834Z,9.13
2023-01-26T13:38:45.913Z,9.02
2023-01-26T13:39:55.347Z,10.02
2023-01-26T13:41:00.621Z,9.52
2023-01-26T13:42:04.319Z,10.25
2023-01-26T13:43:26.176Z,11.93
2023-01-26T13:44:40.010Z,13.30
2023-01-26T13:45:53.771Z,12.70
2023-01-26T13:47:03.404Z,11.43
2023-01-26T13:48:18.183Z,12.27
2023-01-26T13:49:28.300Z,10.98
2023-01-26T13:50:37.791Z,10.65
2023-01-26T13:51:46.532Z,12.27
2023-01-26T13:52:48.633Z,10.93
2023-01-26T13:54:00.842Z,11.57
2023-01-26T13:55:03.194Z,10.95
2023-01-26T13:56:10.109Z,11.07
2023-01-26T13:57:22.838Z,11.65
2023-01-26T13:58:27.917Z,10.95
2023-01-26T13:59:33.236Z,11.95
2023-01-26T14:00:35.846Z,11.10
2023-01-26T14:01:45.479Z,11.20
2023-01-26T14:02:50.641Z,11.50
2023-01-26T14:04:06.736Z,10.88
2023-01-26T14:05:25.180Z,11.85
2023-01-26T14:06:33.336Z,10.73
2023-01-26T14:07:42.932Z,10.77
2023-01-26T14:08:51.089Z,11.90
2023-01-26T14:09:59.114Z,10.07
2023-01-26T14:11:08.687Z,11.60
2023-01-26T14:12:23.991Z,12.90
2023-01-26T14:13:34.527Z,12.18
2023-01-26T14:14:40.906Z,11.43
2023-01-26T14:15:42.929Z,12.20
2023-01-26T14:16:47.754Z,11.18
2023-01-26T14:17:55.522Z,11.48
2023-01-26T14:19:17.246Z,11.40
2023-01-26T14:20:28.428Z,13.10
2023-01-26T14:21:33.759Z,11.88
2023-01-26T14:22:38.789Z,11.18
2023-01-26T14:23:43.487Z,11.10
2023-01-26T14:24:51.519Z,15.27
2023-01-26T14:26:01.625Z,12.98
2023-01-26T14:27:06.563Z,12.35
2023-01-26T14:28:14.965Z,19.98
2023-01-26T14:29:24.547Z,18.05
2023-01-26T14:30:32.085Z,22.67
2023-01-26T14:31:36.919Z,20.77
2023-01-26T14:32:42.906Z,14.18
2023-01-26T14:33:45.201Z,46.85
2023-01-26T14:35:00.883Z,16.60
2023-01-26T14:36:08.233Z,17.52
2023-01-26T14:37:17.864Z,10.95
2023-01-26T14:38:22.928Z,15.93
2023-01-26T14:39:27.580Z,16.35
2023-01-26T14:40:29.892Z,11.57
2023-01-26T14:41:38.809Z,10.05
2023-01-26T14:42:41.411Z,10.75
2023-01-26T14:43:46.244Z,11.20
2023-01-26T14:44:48.286Z,11.40
2023-01-26T14:45:57.951Z,13.32
2023-01-26T14:47:08.032Z,11.52